sensor_id;sensor_type;location;lat;lon;timestamp;temperature;humidity
48162;DHT22;33950;48.154;16.316;2022-09-20T00:02:23;11.70;99.00
48162;DHT22;33950;48.154;16.316;2022-09-20T00:05:09;11.80;99.00
48162;DHT22;33950;48.154;16.316;2022-09-20T00:07:55;11.70;99.00
48162;DHT22;33950;48.154;16.316;2022-09-20T00:10:42;11.70;98.90
48162;DHT22;33950;48.154;16.316;2022-09-20T00:13:29;11.70;99.10
48162;DHT22;33950;48.154;16.316;2022-09-20T00:16:18;11.70;99.00
48162;DHT22;33950;48.154;16.316;2022-09-20T00:19:05;11.60;99.10
48162;DHT22;33950;48.154;16.316;2022-09-20T00:21:51;11.60;99.20
48162;DHT22;33950;48.154;16.316;2022-09-20T00:24:38;11.50;99.20
48162;DHT22;33950;48.154;16.316;2022-09-20T00:27:25;11.60;99.20
48162;DHT22;33950;48.154;16.316;2022-09-20T00:30:12;11.60;99.20
48162;DHT22;33950;48.154;16.316;2022-09-20T00:32:59;11.60;99.20
48162;DHT22;33950;48.154;16.316;2022-09-20T00:35:45;11.60;99.10
48162;DHT22;33950;48.154;16.316;2022-09-20T00:38:32;11.60;99.00
48162;DHT22;33950;48.154;16.316;2022-09-20T00:41:18;11.60;99.00
48162;DHT22;33950;48.154;16.316;2022-09-20T00:47:36;11.60;99.00
48162;DHT22;33950;48.154;16.316;2022-09-20T00:50:31;11.60;98.90
48162;DHT22;33950;48.154;16.316;2022-09-20T00:53:21;11.70;98.80
48162;DHT22;33950;48.154;16.316;2022-09-20T00:56:12;11.60;98.90
48162;DHT22;33950;48.154;16.316;2022-09-20T00:59:05;11.50;98.90
48162;DHT22;33950;48.154;16.316;2022-09-20T01:01:56;11.50;99.10
48162;DHT22;33950;48.154;16.316;2022-09-20T01:04:45;11.50;99.10
48162;DHT22;33950;48.154;16.316;2022-09-20T01:07:33;11.50;99.10
48162;DHT22;33950;48.154;16.316;2022-09-20T01:10:19;11.60;99.10
48162;DHT22;33950;48.154;16.316;2022-09-20T01:13:05;11.60;99.10
48162;DHT22;33950;48.154;16.316;2022-09-20T01:15:52;11.60;99.10
48162;DHT22;33950;48.154;16.316;2022-09-20T01:18:40;11.60;99.20
48162;DHT22;33950;48.154;16.316;2022-09-20T01:21:30;11.60;99.20
48162;DHT22;33950;48.154;16.316;2022-09-20T01:24:20;11.60;99.40
48162;DHT22;33950;48.154;16.316;2022-09-20T01:27:15;11.60;99.40
48162;DHT22;33950;48.154;16.316;2022-09-20T01:30:08;11.60;99.20
48162;DHT22;33950;48.154;16.316;2022-09-20T01:33:08;11.60;99.10
48162;DHT22;33950;48.154;16.316;2022-09-20T01:35:59;11.70;99.00
48162;DHT22;33950;48.154;16.316;2022-09-20T01:38:52;11.80;98.90
48162;DHT22;33950;48.154;16.316;2022-09-20T01:41:46;11.80;98.80
48162;DHT22;33950;48.154;16.316;2022-09-20T01:44:37;11.80;98.80
48162;DHT22;33950;48.154;16.316;2022-09-20T01:47:31;11.80;99.00
48162;DHT22;33950;48.154;16.316;2022-09-20T01:50:28;11.80;98.70
48162;DHT22;33950;48.154;16.316;2022-09-20T01:53:45;11.90;98.70
48162;DHT22;33950;48.154;16.316;2022-09-20T01:57:06;11.90;98.60
48162;DHT22;33950;48.154;16.316;2022-09-20T02:00:06;11.90;98.80
48162;DHT22;33950;48.154;16.316;2022-09-20T02:06:40;12.00;98.90
48162;DHT22;33950;48.154;16.316;2022-09-20T02:09:55;12.30;98.70
48162;DHT22;33950;48.154;16.316;2022-09-20T02:12:55;12.40;98.60
48162;DHT22;33950;48.154;16.316;2022-09-20T02:16:06;12.50;98.50
48162;DHT22;33950;48.154;16.316;2022-09-20T02:19:12;12.30;98.40
48162;DHT22;33950;48.154;16.316;2022-09-20T02:22:21;12.20;98.70
48162;DHT22;33950;48.154;16.316;2022-09-20T02:25:26;12.10;98.70
48162;DHT22;33950;48.154;16.316;2022-09-20T02:28:22;12.00;98.70
48162;DHT22;33950;48.154;16.316;2022-09-20T02:31:15;11.90;98.80
48162;DHT22;33950;48.154;16.316;2022-09-20T02:34:24;11.80;98.80
48162;DHT22;33950;48.154;16.316;2022-09-20T02:37:34;11.80;98.80
48162;DHT22;33950;48.154;16.316;2022-09-20T02:40:37;11.70;99.00
48162;DHT22;33950;48.154;16.316;2022-09-20T02:43:29;11.80;98.90
48162;DHT22;33950;48.154;16.316;2022-09-20T02:46:24;11.70;98.90
48162;DHT22;33950;48.154;16.316;2022-09-20T02:49:17;11.80;98.90
48162;DHT22;33950;48.154;16.316;2022-09-20T02:52:12;11.80;98.90
48162;DHT22;33950;48.154;16.316;2022-09-20T02:55:09;11.90;98.80
48162;DHT22;33950;48.154;16.316;2022-09-20T02:58:06;12.00;98.80
48162;DHT22;33950;48.154;16.316;2022-09-20T03:00:59;12.00;98.90
48162;DHT22;33950;48.154;16.316;2022-09-20T03:03:54;12.00;99.00
48162;DHT22;33950;48.154;16.316;2022-09-20T03:06:50;11.80;99.40
48162;DHT22;33950;48.154;16.316;2022-09-20T03:09:43;11.70;99.60
48162;DHT22;33950;48.154;16.316;2022-09-20T03:12:35;11.70;99.70
48162;DHT22;33950;48.154;16.316;2022-09-20T03:15:30;11.70;99.80
48162;DHT22;33950;48.154;16.316;2022-09-20T03:18:30;11.70;99.90
48162;DHT22;33950;48.154;16.316;2022-09-20T03:21:28;11.60;99.90
48162;DHT22;33950;48.154;16.316;2022-09-20T03:24:28;11.70;99.90
48162;DHT22;33950;48.154;16.316;2022-09-20T03:27:23;11.70;99.90
48162;DHT22;33950;48.154;16.316;2022-09-20T03:30:26;11.70;99.90
48162;DHT22;33950;48.154;16.316;2022-09-20T03:33:24;11.70;99.90
48162;DHT22;33950;48.154;16.316;2022-09-20T03:36:23;11.70;99.90
48162;DHT22;33950;48.154;16.316;2022-09-20T03:39:25;11.70;99.90
48162;DHT22;33950;48.154;16.316;2022-09-20T03:42:17;11.70;99.90
48162;DHT22;33950;48.154;16.316;2022-09-20T03:45:31;11.70;99.90
48162;DHT22;33950;48.154;16.316;2022-09-20T03:48:34;11.60;99.90
48162;DHT22;33950;48.154;16.316;2022-09-20T03:51:28;11.50;99.90
48162;DHT22;33950;48.154;16.316;2022-09-20T03:58:00;11.60;99.90
48162;DHT22;33950;48.154;16.316;2022-09-20T04:01:06;11.70;99.90
48162;DHT22;33950;48.154;16.316;2022-09-20T04:03:59;11.50;99.90
48162;DHT22;33950;48.154;16.316;2022-09-20T04:07:01;11.60;99.90
48162;DHT22;33950;48.154;16.316;2022-09-20T04:10:15;11.60;99.90
48162;DHT22;33950;48.154;16.316;2022-09-20T04:13:24;11.60;99.90
48162;DHT22;33950;48.154;16.316;2022-09-20T04:16:26;11.60;99.90
48162;DHT22;33950;48.154;16.316;2022-09-20T04:19:21;11.60;99.90
48162;DHT22;33950;48.154;16.316;2022-09-20T04:22:09;11.50;99.90
48162;DHT22;33950;48.154;16.316;2022-09-20T04:24:59;11.60;99.90
48162;DHT22;33950;48.154;16.316;2022-09-20T04:27:49;11.60;99.90
48162;DHT22;33950;48.154;16.316;2022-09-20T04:30:37;11.60;99.90
48162;DHT22;33950;48.154;16.316;2022-09-20T04:33:30;11.60;99.90
48162;DHT22;33950;48.154;16.316;2022-09-20T04:36:27;11.60;99.90
48162;DHT22;33950;48.154;16.316;2022-09-20T04:39:23;11.70;99.90
48162;DHT22;33950;48.154;16.316;2022-09-20T04:42:42;11.70;99.90
48162;DHT22;33950;48.154;16.316;2022-09-20T04:49:21;11.70;99.90
48162;DHT22;33950;48.154;16.316;2022-09-20T04:55:49;11.90;99.70
48162;DHT22;33950;48.154;16.316;2022-09-20T04:59:01;11.90;99.60
48162;DHT22;33950;48.154;16.316;2022-09-20T05:05:46;11.70;99.80
48162;DHT22;33950;48.154;16.316;2022-09-20T05:08:59;11.70;99.90
48162;DHT22;33950;48.154;16.316;2022-09-20T05:11:59;11.50;99.90
48162;DHT22;33950;48.154;16.316;2022-09-20T05:15:19;11.40;99.90
48162;DHT22;33950;48.154;16.316;2022-09-20T05:18:35;11.40;99.90
48162;DHT22;33950;48.154;16.316;2022-09-20T05:21:57;11.50;99.90
48162;DHT22;33950;48.154;16.316;2022-09-20T05:25:18;11.50;99.90
48162;DHT22;33950;48.154;16.316;2022-09-20T05:28:15;11.50;99.90
48162;DHT22;33950;48.154;16.316;2022-09-20T05:31:08;11.40;99.90
48162;DHT22;33950;48.154;16.316;2022-09-20T05:34:02;11.40;99.90
48162;DHT22;33950;48.154;16.316;2022-09-20T05:36:56;11.60;99.90
48162;DHT22;33950;48.154;16.316;2022-09-20T05:39:51;11.60;99.90
48162;DHT22;33950;48.154;16.316;2022-09-20T05:42:41;11.60;99.90
48162;DHT22;33950;48.154;16.316;2022-09-20T05:45:47;11.50;99.90
48162;DHT22;33950;48.154;16.316;2022-09-20T05:48:39;11.60;99.90
48162;DHT22;33950;48.154;16.316;2022-09-20T05:55:07;11.70;99.90
48162;DHT22;33950;48.154;16.316;2022-09-20T05:58:04;11.70;99.90
48162;DHT22;33950;48.154;16.316;2022-09-20T06:00:58;11.60;99.90
48162;DHT22;33950;48.154;16.316;2022-09-20T06:03:49;11.70;99.90
48162;DHT22;33950;48.154;16.316;2022-09-20T06:06:48;11.70;99.90
48162;DHT22;33950;48.154;16.316;2022-09-20T06:09:52;11.80;99.90
48162;DHT22;33950;48.154;16.316;2022-09-20T06:12:52;11.70;99.90
48162;DHT22;33950;48.154;16.316;2022-09-20T06:15:43;11.70;99.90
48162;DHT22;33950;48.154;16.316;2022-09-20T06:18:35;11.60;99.90
48162;DHT22;33950;48.154;16.316;2022-09-20T06:21:29;11.60;99.90
48162;DHT22;33950;48.154;16.316;2022-09-20T06:24:31;11.60;99.90
48162;DHT22;33950;48.154;16.316;2022-09-20T06:27:23;11.60;99.90
48162;DHT22;33950;48.154;16.316;2022-09-20T06:30:16;11.50;99.90
48162;DHT22;33950;48.154;16.316;2022-09-20T06:33:13;11.40;99.90
48162;DHT22;33950;48.154;16.316;2022-09-20T06:36:05;11.40;99.90
48162;DHT22;33950;48.154;16.316;2022-09-20T06:39:15;11.40;99.90
48162;DHT22;33950;48.154;16.316;2022-09-20T06:42:24;11.40;99.90
48162;DHT22;33950;48.154;16.316;2022-09-20T06:45:11;11.50;99.90
48162;DHT22;33950;48.154;16.316;2022-09-20T06:47:57;11.50;99.90
48162;DHT22;33950;48.154;16.316;2022-09-20T06:50:43;11.50;99.90
48162;DHT22;33950;48.154;16.316;2022-09-20T06:53:31;11.60;99.90
48162;DHT22;33950;48.154;16.316;2022-09-20T06:56:19;11.70;99.90
48162;DHT22;33950;48.154;16.316;2022-09-20T06:59:08;11.80;99.90
48162;DHT22;33950;48.154;16.316;2022-09-20T07:01:56;12.00;99.90
48162;DHT22;33950;48.154;16.316;2022-09-20T07:04:42;11.90;99.90
48162;DHT22;33950;48.154;16.316;2022-09-20T07:07:29;11.90;99.90
48162;DHT22;33950;48.154;16.316;2022-09-20T07:10:15;11.90;99.90
48162;DHT22;33950;48.154;16.316;2022-09-20T07:13:02;11.80;99.90
48162;DHT22;33950;48.154;16.316;2022-09-20T07:15:49;11.90;99.90
48162;DHT22;33950;48.154;16.316;2022-09-20T07:18:36;11.90;99.90
48162;DHT22;33950;48.154;16.316;2022-09-20T07:21:22;11.80;99.90
48162;DHT22;33950;48.154;16.316;2022-09-20T07:24:08;11.80;99.90
48162;DHT22;33950;48.154;16.316;2022-09-20T07:26:55;11.70;99.90
48162;DHT22;33950;48.154;16.316;2022-09-20T07:29:41;11.80;99.90
48162;DHT22;33950;48.154;16.316;2022-09-20T07:32:29;11.80;99.90
48162;DHT22;33950;48.154;16.316;2022-09-20T07:35:15;11.80;99.90
48162;DHT22;33950;48.154;16.316;2022-09-20T07:38:02;11.80;99.90
48162;DHT22;33950;48.154;16.316;2022-09-20T07:40:54;11.90;99.90
48162;DHT22;33950;48.154;16.316;2022-09-20T07:43:40;11.80;99.90
48162;DHT22;33950;48.154;16.316;2022-09-20T07:46:26;11.70;99.90
48162;DHT22;33950;48.154;16.316;2022-09-20T07:49:14;11.70;99.90
48162;DHT22;33950;48.154;16.316;2022-09-20T07:52:00;11.80;99.90
48162;DHT22;33950;48.154;16.316;2022-09-20T07:54:47;11.80;99.90
48162;DHT22;33950;48.154;16.316;2022-09-20T07:57:35;11.90;99.90
48162;DHT22;33950;48.154;16.316;2022-09-20T08:00:22;11.90;99.90
48162;DHT22;33950;48.154;16.316;2022-09-20T08:03:08;11.90;99.90
48162;DHT22;33950;48.154;16.316;2022-09-20T08:05:59;11.90;99.90
48162;DHT22;33950;48.154;16.316;2022-09-20T08:08:46;12.00;99.90
48162;DHT22;33950;48.154;16.316;2022-09-20T08:11:33;12.10;99.90
48162;DHT22;33950;48.154;16.316;2022-09-20T08:14:20;12.20;99.90
48162;DHT22;33950;48.154;16.316;2022-09-20T08:17:06;12.30;99.90
48162;DHT22;33950;48.154;16.316;2022-09-20T08:19:55;12.50;99.90
48162;DHT22;33950;48.154;16.316;2022-09-20T08:22:42;12.60;99.90
48162;DHT22;33950;48.154;16.316;2022-09-20T08:25:29;12.50;99.90
48162;DHT22;33950;48.154;16.316;2022-09-20T08:28:15;12.50;99.90
48162;DHT22;33950;48.154;16.316;2022-09-20T08:31:02;12.60;99.90
48162;DHT22;33950;48.154;16.316;2022-09-20T08:33:49;12.80;99.90
48162;DHT22;33950;48.154;16.316;2022-09-20T08:36:38;12.90;99.70
48162;DHT22;33950;48.154;16.316;2022-09-20T08:39:27;12.80;99.30
48162;DHT22;33950;48.154;16.316;2022-09-20T08:42:20;12.90;99.70
48162;DHT22;33950;48.154;16.316;2022-09-20T08:45:14;12.80;99.00
48162;DHT22;33950;48.154;16.316;2022-09-20T08:48:02;12.60;99.40
48162;DHT22;33950;48.154;16.316;2022-09-20T08:50:50;12.60;99.70
48162;DHT22;33950;48.154;16.316;2022-09-20T08:53:41;12.80;99.60
48162;DHT22;33950;48.154;16.316;2022-09-20T08:56:31;13.00;98.90
48162;DHT22;33950;48.154;16.316;2022-09-20T08:59:21;13.20;98.90
48162;DHT22;33950;48.154;16.316;2022-09-20T09:02:13;13.20;98.80
48162;DHT22;33950;48.154;16.316;2022-09-20T09:04:59;13.20;97.90
48162;DHT22;33950;48.154;16.316;2022-09-20T09:07:47;13.10;99.10
48162;DHT22;33950;48.154;16.316;2022-09-20T09:10:36;13.10;99.40
48162;DHT22;33950;48.154;16.316;2022-09-20T09:13:29;13.20;98.80
48162;DHT22;33950;48.154;16.316;2022-09-20T09:16:18;13.20;99.30
48162;DHT22;33950;48.154;16.316;2022-09-20T09:19:25;13.20;99.00
48162;DHT22;33950;48.154;16.316;2022-09-20T09:22:18;13.30;98.70
48162;DHT22;33950;48.154;16.316;2022-09-20T09:25:07;13.40;98.30
48162;DHT22;33950;48.154;16.316;2022-09-20T09:27:55;13.60;98.00
48162;DHT22;33950;48.154;16.316;2022-09-20T09:30:44;13.60;97.80
48162;DHT22;33950;48.154;16.316;2022-09-20T09:33:34;13.60;98.00
48162;DHT22;33950;48.154;16.316;2022-09-20T09:36:21;13.80;98.10
48162;DHT22;33950;48.154;16.316;2022-09-20T09:39:14;13.70;97.90
48162;DHT22;33950;48.154;16.316;2022-09-20T09:42:18;13.90;98.20
48162;DHT22;33950;48.154;16.316;2022-09-20T09:45:22;14.00;98.10
48162;DHT22;33950;48.154;16.316;2022-09-20T09:48:19;14.00;98.50
48162;DHT22;33950;48.154;16.316;2022-09-20T09:51:08;14.00;98.50
48162;DHT22;33950;48.154;16.316;2022-09-20T09:53:54;14.00;98.50
48162;DHT22;33950;48.154;16.316;2022-09-20T09:56:48;13.90;98.20
48162;DHT22;33950;48.154;16.316;2022-09-20T09:59:53;13.60;96.80
48162;DHT22;33950;48.154;16.316;2022-09-20T10:06:09;13.30;97.30
48162;DHT22;33950;48.154;16.316;2022-09-20T10:09:09;13.10;97.60
48162;DHT22;33950;48.154;16.316;2022-09-20T10:12:14;13.00;98.00
48162;DHT22;33950;48.154;16.316;2022-09-20T10:15:16;13.10;98.30
48162;DHT22;33950;48.154;16.316;2022-09-20T10:21:25;13.50;97.90
48162;DHT22;33950;48.154;16.316;2022-09-20T10:24:22;13.80;97.50
48162;DHT22;33950;48.154;16.316;2022-09-20T10:27:25;14.10;96.90
48162;DHT22;33950;48.154;16.316;2022-09-20T10:30:19;14.30;96.50
48162;DHT22;33950;48.154;16.316;2022-09-20T10:33:17;14.50;96.20
48162;DHT22;33950;48.154;16.316;2022-09-20T10:36:13;14.80;95.80
48162;DHT22;33950;48.154;16.316;2022-09-20T10:39:08;15.20;95.40
48162;DHT22;33950;48.154;16.316;2022-09-20T10:42:06;14.90;94.40
48162;DHT22;33950;48.154;16.316;2022-09-20T10:45:17;13.40;95.90
48162;DHT22;33950;48.154;16.316;2022-09-20T10:48:07;12.40;99.00
48162;DHT22;33950;48.154;16.316;2022-09-20T10:50:59;12.10;98.80
48162;DHT22;33950;48.154;16.316;2022-09-20T10:53:50;12.10;98.90
48162;DHT22;33950;48.154;16.316;2022-09-20T10:56:41;12.10;99.20
48162;DHT22;33950;48.154;16.316;2022-09-20T10:59:41;12.10;99.10
48162;DHT22;33950;48.154;16.316;2022-09-20T11:02:42;12.00;99.30
48162;DHT22;33950;48.154;16.316;2022-09-20T11:05:39;12.00;99.60
48162;DHT22;33950;48.154;16.316;2022-09-20T11:08:32;12.10;99.50
48162;DHT22;33950;48.154;16.316;2022-09-20T11:11:20;12.20;99.40
48162;DHT22;33950;48.154;16.316;2022-09-20T11:14:12;12.30;99.70
48162;DHT22;33950;48.154;16.316;2022-09-20T11:17:03;12.40;99.80
48162;DHT22;33950;48.154;16.316;2022-09-20T11:19:56;12.50;99.60
48162;DHT22;33950;48.154;16.316;2022-09-20T11:22:47;12.70;99.60
48162;DHT22;33950;48.154;16.316;2022-09-20T11:25:38;13.30;99.20
48162;DHT22;33950;48.154;16.316;2022-09-20T11:28:29;14.20;98.60
48162;DHT22;33950;48.154;16.316;2022-09-20T11:31:25;14.90;97.50
48162;DHT22;33950;48.154;16.316;2022-09-20T11:34:16;15.70;96.90
48162;DHT22;33950;48.154;16.316;2022-09-20T11:37:05;15.60;96.20
48162;DHT22;33950;48.154;16.316;2022-09-20T11:39:53;15.10;97.00
48162;DHT22;33950;48.154;16.316;2022-09-20T11:42:40;14.30;95.50
48162;DHT22;33950;48.154;16.316;2022-09-20T11:45:27;13.70;96.80
48162;DHT22;33950;48.154;16.316;2022-09-20T11:48:20;13.30;96.70
48162;DHT22;33950;48.154;16.316;2022-09-20T11:51:22;13.10;97.10
48162;DHT22;33950;48.154;16.316;2022-09-20T11:54:39;13.00;97.60
48162;DHT22;33950;48.154;16.316;2022-09-20T11:57:31;12.80;98.50
48162;DHT22;33950;48.154;16.316;2022-09-20T12:00:27;12.80;99.20
48162;DHT22;33950;48.154;16.316;2022-09-20T12:03:27;12.90;99.90
48162;DHT22;33950;48.154;16.316;2022-09-20T12:06:24;13.30;99.90
48162;DHT22;33950;48.154;16.316;2022-09-20T12:09:22;13.70;99.90
48162;DHT22;33950;48.154;16.316;2022-09-20T12:12:14;13.90;99.90
48162;DHT22;33950;48.154;16.316;2022-09-20T12:15:07;14.00;99.70
48162;DHT22;33950;48.154;16.316;2022-09-20T12:21:16;13.80;99.80
48162;DHT22;33950;48.154;16.316;2022-09-20T12:24:20;13.50;99.70
48162;DHT22;33950;48.154;16.316;2022-09-20T12:27:21;13.10;99.90
48162;DHT22;33950;48.154;16.316;2022-09-20T12:30:16;12.70;99.90
48162;DHT22;33950;48.154;16.316;2022-09-20T12:33:02;12.10;99.90
48162;DHT22;33950;48.154;16.316;2022-09-20T12:35:58;11.70;99.90
48162;DHT22;33950;48.154;16.316;2022-09-20T12:38:58;11.70;99.90
48162;DHT22;33950;48.154;16.316;2022-09-20T12:41:47;11.70;99.90
48162;DHT22;33950;48.154;16.316;2022-09-20T12:44:35;11.90;99.90
48162;DHT22;33950;48.154;16.316;2022-09-20T12:47:24;11.90;99.90
48162;DHT22;33950;48.154;16.316;2022-09-20T12:50:13;11.80;99.90
48162;DHT22;33950;48.154;16.316;2022-09-20T12:53:17;11.60;99.90
48162;DHT22;33950;48.154;16.316;2022-09-20T12:56:06;11.50;99.90
48162;DHT22;33950;48.154;16.316;2022-09-20T12:58:54;11.40;99.90
48162;DHT22;33950;48.154;16.316;2022-09-20T13:01:40;11.40;99.90
48162;DHT22;33950;48.154;16.316;2022-09-20T13:04:51;11.40;99.90
48162;DHT22;33950;48.154;16.316;2022-09-20T13:07:45;11.50;99.90
48162;DHT22;33950;48.154;16.316;2022-09-20T13:10:35;11.50;99.90
48162;DHT22;33950;48.154;16.316;2022-09-20T13:13:36;11.50;99.90
48162;DHT22;33950;48.154;16.316;2022-09-20T13:16:29;11.50;99.90
48162;DHT22;33950;48.154;16.316;2022-09-20T13:19:18;11.40;99.90
48162;DHT22;33950;48.154;16.316;2022-09-20T13:22:07;11.30;99.90
48162;DHT22;33950;48.154;16.316;2022-09-20T13:24:58;11.30;99.90
48162;DHT22;33950;48.154;16.316;2022-09-20T13:27:49;11.30;99.90
48162;DHT22;33950;48.154;16.316;2022-09-20T13:30:37;11.30;99.90
48162;DHT22;33950;48.154;16.316;2022-09-20T13:33:25;11.30;99.90
48162;DHT22;33950;48.154;16.316;2022-09-20T13:36:11;11.30;99.90
48162;DHT22;33950;48.154;16.316;2022-09-20T13:38:58;11.30;99.90
48162;DHT22;33950;48.154;16.316;2022-09-20T13:41:44;11.30;99.90
48162;DHT22;33950;48.154;16.316;2022-09-20T13:44:33;11.10;99.90
48162;DHT22;33950;48.154;16.316;2022-09-20T13:47:25;11.00;99.90
48162;DHT22;33950;48.154;16.316;2022-09-20T13:50:17;11.00;99.90
48162;DHT22;33950;48.154;16.316;2022-09-20T13:53:14;11.00;99.90
48162;DHT22;33950;48.154;16.316;2022-09-20T13:56:00;11.10;99.90
48162;DHT22;33950;48.154;16.316;2022-09-20T13:58:54;11.20;99.90
48162;DHT22;33950;48.154;16.316;2022-09-20T14:01:47;11.40;99.90
48162;DHT22;33950;48.154;16.316;2022-09-20T14:04:37;11.80;99.90
48162;DHT22;33950;48.154;16.316;2022-09-20T14:07:24;12.20;99.90
48162;DHT22;33950;48.154;16.316;2022-09-20T14:10:30;12.50;99.80
48162;DHT22;33950;48.154;16.316;2022-09-20T14:18:48;12.80;98.50
48162;DHT22;33950;48.154;16.316;2022-09-20T14:21:37;13.20;98.00
48162;DHT22;33950;48.154;16.316;2022-09-20T14:24:29;13.60;97.40
48162;DHT22;33950;48.154;16.316;2022-09-20T14:27:19;14.00;97.20
48162;DHT22;33950;48.154;16.316;2022-09-20T14:30:26;14.30;97.10
48162;DHT22;33950;48.154;16.316;2022-09-20T14:35:46;14.80;95.80
48162;DHT22;33950;48.154;16.316;2022-09-20T14:38:35;14.90;95.30
48162;DHT22;33950;48.154;16.316;2022-09-20T14:41:27;15.00;94.40
48162;DHT22;33950;48.154;16.316;2022-09-20T14:44:29;15.30;95.00
48162;DHT22;33950;48.154;16.316;2022-09-20T14:47:25;15.60;94.20
48162;DHT22;33950;48.154;16.316;2022-09-20T14:50:23;15.70;93.90
48162;DHT22;33950;48.154;16.316;2022-09-20T14:53:23;15.70;92.30
48162;DHT22;33950;48.154;16.316;2022-09-20T14:56:15;15.30;93.60
48162;DHT22;33950;48.154;16.316;2022-09-20T14:59:18;15.00;94.00
48162;DHT22;33950;48.154;16.316;2022-09-20T15:02:12;14.90;94.40
48162;DHT22;33950;48.154;16.316;2022-09-20T15:04:59;14.70;94.80
48162;DHT22;33950;48.154;16.316;2022-09-20T15:07:45;14.40;95.60
48162;DHT22;33950;48.154;16.316;2022-09-20T15:10:32;13.90;96.40
48162;DHT22;33950;48.154;16.316;2022-09-20T15:13:19;13.40;97.10
48162;DHT22;33950;48.154;16.316;2022-09-20T15:16:06;13.00;98.10
48162;DHT22;33950;48.154;16.316;2022-09-20T15:18:52;12.60;99.50
48162;DHT22;33950;48.154;16.316;2022-09-20T15:21:39;12.20;99.90
48162;DHT22;33950;48.154;16.316;2022-09-20T15:24:25;11.90;99.90
48162;DHT22;33950;48.154;16.316;2022-09-20T15:27:12;11.70;99.90
48162;DHT22;33950;48.154;16.316;2022-09-20T15:29:59;11.50;99.90
48162;DHT22;33950;48.154;16.316;2022-09-20T15:32:46;11.20;99.90
48162;DHT22;33950;48.154;16.316;2022-09-20T15:35:35;10.90;99.90
48162;DHT22;33950;48.154;16.316;2022-09-20T15:38:21;10.80;99.90
48162;DHT22;33950;48.154;16.316;2022-09-20T15:41:11;10.80;99.90
48162;DHT22;33950;48.154;16.316;2022-09-20T15:43:57;10.70;99.90
48162;DHT22;33950;48.154;16.316;2022-09-20T15:46:45;10.60;99.90
48162;DHT22;33950;48.154;16.316;2022-09-20T15:49:33;10.60;99.90
48162;DHT22;33950;48.154;16.316;2022-09-20T15:52:19;10.70;99.90
48162;DHT22;33950;48.154;16.316;2022-09-20T15:55:10;10.70;99.90
48162;DHT22;33950;48.154;16.316;2022-09-20T15:57:56;10.70;99.90
48162;DHT22;33950;48.154;16.316;2022-09-20T16:00:42;10.70;99.90
48162;DHT22;33950;48.154;16.316;2022-09-20T16:03:32;10.80;99.90
48162;DHT22;33950;48.154;16.316;2022-09-20T16:06:19;10.90;99.90
48162;DHT22;33950;48.154;16.316;2022-09-20T16:09:06;10.90;99.90
48162;DHT22;33950;48.154;16.316;2022-09-20T16:11:52;10.90;99.90
48162;DHT22;33950;48.154;16.316;2022-09-20T16:14:43;10.90;99.90
48162;DHT22;33950;48.154;16.316;2022-09-20T16:17:29;10.80;99.90
48162;DHT22;33950;48.154;16.316;2022-09-20T16:20:35;10.80;99.90
48162;DHT22;33950;48.154;16.316;2022-09-20T16:23:21;10.70;99.90
48162;DHT22;33950;48.154;16.316;2022-09-20T16:26:08;10.70;99.90
48162;DHT22;33950;48.154;16.316;2022-09-20T16:28:58;10.70;99.90
48162;DHT22;33950;48.154;16.316;2022-09-20T16:31:45;10.60;99.90
48162;DHT22;33950;48.154;16.316;2022-09-20T16:34:35;10.60;99.90
48162;DHT22;33950;48.154;16.316;2022-09-20T16:37:23;10.60;99.90
48162;DHT22;33950;48.154;16.316;2022-09-20T16:40:09;10.60;99.90
48162;DHT22;33950;48.154;16.316;2022-09-20T16:42:56;10.60;99.90
48162;DHT22;33950;48.154;16.316;2022-09-20T16:45:43;10.50;99.90
48162;DHT22;33950;48.154;16.316;2022-09-20T16:48:29;10.40;99.90
48162;DHT22;33950;48.154;16.316;2022-09-20T16:51:17;10.40;99.90
48162;DHT22;33950;48.154;16.316;2022-09-20T16:54:05;10.40;99.90
48162;DHT22;33950;48.154;16.316;2022-09-20T16:56:52;10.30;99.90
48162;DHT22;33950;48.154;16.316;2022-09-20T16:59:41;10.40;99.90
48162;DHT22;33950;48.154;16.316;2022-09-20T17:02:31;10.40;99.90
48162;DHT22;33950;48.154;16.316;2022-09-20T17:05:17;10.50;99.90
48162;DHT22;33950;48.154;16.316;2022-09-20T17:08:03;10.50;99.90
48162;DHT22;33950;48.154;16.316;2022-09-20T17:10:51;10.50;99.90
48162;DHT22;33950;48.154;16.316;2022-09-20T17:13:37;10.70;99.90
48162;DHT22;33950;48.154;16.316;2022-09-20T17:16:25;10.80;99.90
48162;DHT22;33950;48.154;16.316;2022-09-20T17:19:14;11.00;99.90
48162;DHT22;33950;48.154;16.316;2022-09-20T17:22:01;11.10;99.90
48162;DHT22;33950;48.154;16.316;2022-09-20T17:24:47;11.20;99.90
48162;DHT22;33950;48.154;16.316;2022-09-20T17:27:36;11.40;99.90
48162;DHT22;33950;48.154;16.316;2022-09-20T17:30:24;11.50;99.90
48162;DHT22;33950;48.154;16.316;2022-09-20T17:33:11;11.60;99.90
48162;DHT22;33950;48.154;16.316;2022-09-20T17:35:57;11.60;99.90
48162;DHT22;33950;48.154;16.316;2022-09-20T17:38:47;11.50;99.90
48162;DHT22;33950;48.154;16.316;2022-09-20T17:41:37;11.50;99.90
48162;DHT22;33950;48.154;16.316;2022-09-20T17:44:26;11.50;99.90
48162;DHT22;33950;48.154;16.316;2022-09-20T17:47:12;11.60;99.90
48162;DHT22;33950;48.154;16.316;2022-09-20T17:49:58;11.60;99.90
48162;DHT22;33950;48.154;16.316;2022-09-20T17:52:45;11.50;99.90
48162;DHT22;33950;48.154;16.316;2022-09-20T17:55:31;11.50;99.90
48162;DHT22;33950;48.154;16.316;2022-09-20T17:58:19;11.50;99.90
48162;DHT22;33950;48.154;16.316;2022-09-20T18:01:09;11.50;99.90
48162;DHT22;33950;48.154;16.316;2022-09-20T18:03:57;11.50;99.90
48162;DHT22;33950;48.154;16.316;2022-09-20T18:06:45;11.40;99.90
48162;DHT22;33950;48.154;16.316;2022-09-20T18:09:31;11.50;99.90
48162;DHT22;33950;48.154;16.316;2022-09-20T18:12:17;11.40;99.90
48162;DHT22;33950;48.154;16.316;2022-09-20T18:15:05;11.40;99.90
48162;DHT22;33950;48.154;16.316;2022-09-20T18:17:53;11.40;99.90
48162;DHT22;33950;48.154;16.316;2022-09-20T18:20:39;11.30;99.90
48162;DHT22;33950;48.154;16.316;2022-09-20T18:23:25;11.20;99.90
48162;DHT22;33950;48.154;16.316;2022-09-20T18:26:13;11.10;99.90
48162;DHT22;33950;48.154;16.316;2022-09-20T18:29:10;11.00;99.90
48162;DHT22;33950;48.154;16.316;2022-09-20T18:31:56;10.80;99.90
48162;DHT22;33950;48.154;16.316;2022-09-20T18:34:45;10.70;99.90
48162;DHT22;33950;48.154;16.316;2022-09-20T18:37:35;10.60;99.90